sensor_id;sensor_type;location;lat;lon;timestamp;P1;durP1;ratioP1;P2;durP2;ratioP2
17482;SDS011;8858;52.308;20.994;2023-11-19T00:00:43;28.70;;;20.80;;
17482;SDS011;8858;52.308;20.994;2023-11-19T00:03:21;30.13;;;20.47;;
17482;SDS011;8858;52.308;20.994;2023-11-19T00:05:51;28.77;;;20.33;;
17482;SDS011;8858;52.308;20.994;2023-11-19T00:08:19;28.37;;;20.63;;
17482;SDS011;8858;52.308;20.994;2023-11-19T00:10:47;29.67;;;20.23;;
17482;SDS011;8858;52.308;20.994;2023-11-19T00:13:17;29.63;;;21.23;;
17482;SDS011;8858;52.308;20.994;2023-11-19T00:15:46;31.77;;;22.63;;
17482;SDS011;8858;52.308;20.994;2023-11-19T00:18:18;29.03;;;20.93;;
17482;SDS011;8858;52.308;20.994;2023-11-19T00:20:48;30.97;;;21.30;;
17482;SDS011;8858;52.308;20.994;2023-11-19T00:23:18;30.13;;;21.87;;
17482;SDS011;8858;52.308;20.994;2023-11-19T00:25:46;31.87;;;21.43;;
17482;SDS011;8858;52.308;20.994;2023-11-19T00:28:14;31.27;;;22.67;;
17482;SDS011;8858;52.308;20.994;2023-11-19T00:30:46;32.63;;;22.47;;
17482;SDS011;8858;52.308;20.994;2023-11-19T00:33:15;37.20;;;23.77;;
17482;SDS011;8858;52.308;20.994;2023-11-19T00:35:44;31.23;;;22.97;;
17482;SDS011;8858;52.308;20.994;2023-11-19T00:38:14;31.50;;;22.53;;
17482;SDS011;8858;52.308;20.994;2023-11-19T00:40:43;32.83;;;22.87;;
17482;SDS011;8858;52.308;20.994;2023-11-19T00:43:15;30.87;;;22.60;;
17482;SDS011;8858;52.308;20.994;2023-11-19T00:45:45;33.27;;;22.20;;
17482;SDS011;8858;52.308;20.994;2023-11-19T00:48:13;31.73;;;22.87;;
17482;SDS011;8858;52.308;20.994;2023-11-19T00:50:42;30.07;;;22.70;;
17482;SDS011;8858;52.308;20.994;2023-11-19T00:53:11;32.53;;;23.63;;
17482;SDS011;8858;52.308;20.994;2023-11-19T00:55:43;32.90;;;23.90;;
17482;SDS011;8858;52.308;20.994;2023-11-19T00:58:13;33.07;;;23.67;;
17482;SDS011;8858;52.308;20.994;2023-11-19T01:00:41;34.37;;;23.50;;
17482;SDS011;8858;52.308;20.994;2023-11-19T01:03:09;34.27;;;22.73;;
17482;SDS011;8858;52.308;20.994;2023-11-19T01:05:40;34.47;;;23.27;;
17482;SDS011;8858;52.308;20.994;2023-11-19T01:08:09;36.90;;;24.63;;
17482;SDS011;8858;52.308;20.994;2023-11-19T01:10:38;33.97;;;23.10;;
17482;SDS011;8858;52.308;20.994;2023-11-19T01:13:08;33.47;;;24.67;;
17482;SDS011;8858;52.308;20.994;2023-11-19T01:15:36;34.17;;;23.43;;
17482;SDS011;8858;52.308;20.994;2023-11-19T01:18:07;34.47;;;23.57;;
17482;SDS011;8858;52.308;20.994;2023-11-19T01:23:30;37.20;;;24.10;;
17482;SDS011;8858;52.308;20.994;2023-11-19T01:26:00;37.27;;;24.90;;
17482;SDS011;8858;52.308;20.994;2023-11-19T01:28:30;34.63;;;24.23;;
17482;SDS011;8858;52.308;20.994;2023-11-19T01:30:59;35.57;;;25.23;;
17482;SDS011;8858;52.308;20.994;2023-11-19T01:33:32;36.30;;;25.67;;
17482;SDS011;8858;52.308;20.994;2023-11-19T01:36:01;37.90;;;25.17;;
17482;SDS011;8858;52.308;20.994;2023-11-19T01:38:30;37.60;;;24.77;;
17482;SDS011;8858;52.308;20.994;2023-11-19T01:41:00;37.90;;;24.93;;
17482;SDS011;8858;52.308;20.994;2023-11-19T01:43:33;35.60;;;24.73;;
17482;SDS011;8858;52.308;20.994;2023-11-19T01:46:02;36.57;;;25.30;;
17482;SDS011;8858;52.308;20.994;2023-11-19T01:48:37;40.73;;;27.13;;
17482;SDS011;8858;52.308;20.994;2023-11-19T01:51:08;40.57;;;26.03;;
17482;SDS011;8858;52.308;20.994;2023-11-19T01:53:38;40.03;;;25.93;;
17482;SDS011;8858;52.308;20.994;2023-11-19T01:56:09;38.20;;;26.63;;
17482;SDS011;8858;52.308;20.994;2023-11-19T01:58:43;39.73;;;26.37;;
17482;SDS011;8858;52.308;20.994;2023-11-19T02:01:13;39.23;;;25.80;;
17482;SDS011;8858;52.308;20.994;2023-11-19T02:03:42;41.77;;;26.87;;
17482;SDS011;8858;52.308;20.994;2023-11-19T02:06:12;41.03;;;26.93;;
17482;SDS011;8858;52.308;20.994;2023-11-19T02:08:43;38.80;;;26.87;;
17482;SDS011;8858;52.308;20.994;2023-11-19T02:11:13;36.63;;;26.07;;
17482;SDS011;8858;52.308;20.994;2023-11-19T02:13:42;39.73;;;26.83;;
17482;SDS011;8858;52.308;20.994;2023-11-19T02:16:11;41.67;;;27.57;;
17482;SDS011;8858;52.308;20.994;2023-11-19T02:18:39;41.73;;;27.17;;
17482;SDS011;8858;52.308;20.994;2023-11-19T02:21:10;40.37;;;27.57;;
17482;SDS011;8858;52.308;20.994;2023-11-19T02:23:42;39.17;;;26.87;;
17482;SDS011;8858;52.308;20.994;2023-11-19T02:26:14;43.23;;;27.87;;
17482;SDS011;8858;52.308;20.994;2023-11-19T02:28:55;41.67;;;27.40;;
17482;SDS011;8858;52.308;20.994;2023-11-19T02:31:24;44.10;;;28.67;;
17482;SDS011;8858;52.308;20.994;2023-11-19T02:33:54;42.53;;;27.60;;
17482;SDS011;8858;52.308;20.994;2023-11-19T02:36:22;42.43;;;28.60;;
17482;SDS011;8858;52.308;20.994;2023-11-19T02:38:51;40.80;;;28.50;;
17482;SDS011;8858;52.308;20.994;2023-11-19T02:41:19;41.60;;;27.83;;
17482;SDS011;8858;52.308;20.994;2023-11-19T02:43:48;44.00;;;29.07;;
17482;SDS011;8858;52.308;20.994;2023-11-19T02:46:18;41.47;;;27.53;;
17482;SDS011;8858;52.308;20.994;2023-11-19T02:48:47;44.50;;;27.93;;
17482;SDS011;8858;52.308;20.994;2023-11-19T02:51:15;47.30;;;29.23;;
17482;SDS011;8858;52.308;20.994;2023-11-19T02:53:46;44.27;;;29.07;;
17482;SDS011;8858;52.308;20.994;2023-11-19T02:56:15;43.97;;;28.50;;
17482;SDS011;8858;52.308;20.994;2023-11-19T02:58:52;45.30;;;28.63;;
17482;SDS011;8858;52.308;20.994;2023-11-19T03:01:23;46.73;;;30.03;;
17482;SDS011;8858;52.308;20.994;2023-11-19T03:03:58;42.23;;;27.60;;
17482;SDS011;8858;52.308;20.994;2023-11-19T03:06:29;46.13;;;28.57;;
17482;SDS011;8858;52.308;20.994;2023-11-19T03:08:58;48.00;;;29.23;;
17482;SDS011;8858;52.308;20.994;2023-11-19T03:11:32;41.77;;;28.03;;
17482;SDS011;8858;52.308;20.994;2023-11-19T03:14:01;42.53;;;27.80;;
17482;SDS011;8858;52.308;20.994;2023-11-19T03:16:35;44.23;;;28.43;;
17482;SDS011;8858;52.308;20.994;2023-11-19T03:19:07;42.97;;;28.30;;
17482;SDS011;8858;52.308;20.994;2023-11-19T03:21:35;46.00;;;30.27;;
17482;SDS011;8858;52.308;20.994;2023-11-19T03:24:05;47.00;;;28.23;;
17482;SDS011;8858;52.308;20.994;2023-11-19T03:26:34;46.87;;;29.63;;
17482;SDS011;8858;52.308;20.994;2023-11-19T03:29:04;43.50;;;28.60;;
17482;SDS011;8858;52.308;20.994;2023-11-19T03:31:36;42.13;;;27.83;;
17482;SDS011;8858;52.308;20.994;2023-11-19T03:34:11;43.03;;;27.07;;
17482;SDS011;8858;52.308;20.994;2023-11-19T03:36:40;43.93;;;27.10;;
17482;SDS011;8858;52.308;20.994;2023-11-19T03:39:10;41.63;;;27.67;;
17482;SDS011;8858;52.308;20.994;2023-11-19T03:41:38;42.73;;;27.93;;
17482;SDS011;8858;52.308;20.994;2023-11-19T03:44:10;46.67;;;29.90;;
17482;SDS011;8858;52.308;20.994;2023-11-19T03:46:40;46.47;;;28.73;;
17482;SDS011;8858;52.308;20.994;2023-11-19T03:49:34;44.70;;;28.57;;
17482;SDS011;8858;52.308;20.994;2023-11-19T03:52:02;45.97;;;28.67;;
17482;SDS011;8858;52.308;20.994;2023-11-19T03:54:45;44.33;;;27.23;;
17482;SDS011;8858;52.308;20.994;2023-11-19T03:57:38;44.80;;;28.33;;
17482;SDS011;8858;52.308;20.994;2023-11-19T04:00:06;46.30;;;28.93;;
17482;SDS011;8858;52.308;20.994;2023-11-19T04:02:42;43.33;;;28.47;;
17482;SDS011;8858;52.308;20.994;2023-11-19T04:05:10;45.97;;;29.93;;
17482;SDS011;8858;52.308;20.994;2023-11-19T04:07:39;45.60;;;29.43;;
17482;SDS011;8858;52.308;20.994;2023-11-19T04:10:08;43.77;;;29.30;;
17482;SDS011;8858;52.308;20.994;2023-11-19T04:12:36;50.87;;;29.87;;
17482;SDS011;8858;52.308;20.994;2023-11-19T04:15:05;49.60;;;30.50;;
17482;SDS011;8858;52.308;20.994;2023-11-19T04:17:36;45.80;;;29.93;;
17482;SDS011;8858;52.308;20.994;2023-11-19T04:20:06;46.37;;;29.20;;
17482;SDS011;8858;52.308;20.994;2023-11-19T04:22:39;48.70;;;28.97;;
17482;SDS011;8858;52.308;20.994;2023-11-19T04:25:31;47.90;;;28.57;;
17482;SDS011;8858;52.308;20.994;2023-11-19T04:27:59;46.73;;;29.33;;
17482;SDS011;8858;52.308;20.994;2023-11-19T04:30:29;45.97;;;28.13;;
17482;SDS011;8858;52.308;20.994;2023-11-19T04:33:01;46.87;;;29.40;;
17482;SDS011;8858;52.308;20.994;2023-11-19T04:35:31;48.23;;;28.23;;
17482;SDS011;8858;52.308;20.994;2023-11-19T04:38:00;49.13;;;28.80;;
17482;SDS011;8858;52.308;20.994;2023-11-19T04:40:29;42.30;;;27.83;;
17482;SDS011;8858;52.308;20.994;2023-11-19T04:42:57;43.10;;;27.43;;
17482;SDS011;8858;52.308;20.994;2023-11-19T04:45:26;47.00;;;28.33;;
17482;SDS011;8858;52.308;20.994;2023-11-19T04:47:54;46.17;;;27.43;;
17482;SDS011;8858;52.308;20.994;2023-11-19T04:50:26;44.60;;;28.13;;
17482;SDS011;8858;52.308;20.994;2023-11-19T04:52:56;42.87;;;26.30;;
17482;SDS011;8858;52.308;20.994;2023-11-19T04:55:26;43.50;;;26.70;;
17482;SDS011;8858;52.308;20.994;2023-11-19T04:57:55;44.63;;;27.10;;
17482;SDS011;8858;52.308;20.994;2023-11-19T05:00:23;43.07;;;26.73;;
17482;SDS011;8858;52.308;20.994;2023-11-19T05:02:56;44.00;;;26.93;;
17482;SDS011;8858;52.308;20.994;2023-11-19T05:05:25;39.40;;;25.13;;
17482;SDS011;8858;52.308;20.994;2023-11-19T05:07:57;40.97;;;26.43;;
17482;SDS011;8858;52.308;20.994;2023-11-19T05:10:25;37.80;;;25.07;;
17482;SDS011;8858;52.308;20.994;2023-11-19T05:12:53;36.97;;;24.60;;
17482;SDS011;8858;52.308;20.994;2023-11-19T05:15:23;36.63;;;23.97;;
17482;SDS011;8858;52.308;20.994;2023-11-19T05:17:52;38.50;;;25.43;;
17482;SDS011;8858;52.308;20.994;2023-11-19T05:20:21;40.43;;;24.93;;
17482;SDS011;8858;52.308;20.994;2023-11-19T05:22:50;37.13;;;25.20;;
17482;SDS011;8858;52.308;20.994;2023-11-19T05:25:24;38.67;;;24.60;;
17482;SDS011;8858;52.308;20.994;2023-11-19T05:27:53;41.90;;;25.23;;
17482;SDS011;8858;52.308;20.994;2023-11-19T05:30:21;41.30;;;25.20;;
17482;SDS011;8858;52.308;20.994;2023-11-19T05:32:50;40.73;;;25.53;;
17482;SDS011;8858;52.308;20.994;2023-11-19T05:35:18;37.03;;;24.13;;
17482;SDS011;8858;52.308;20.994;2023-11-19T05:37:47;40.27;;;25.00;;
17482;SDS011;8858;52.308;20.994;2023-11-19T05:40:20;39.47;;;24.97;;
17482;SDS011;8858;52.308;20.994;2023-11-19T05:42:50;39.23;;;24.97;;
17482;SDS011;8858;52.308;20.994;2023-11-19T05:45:19;39.10;;;24.27;;
17482;SDS011;8858;52.308;20.994;2023-11-19T05:47:47;36.97;;;25.10;;
17482;SDS011;8858;52.308;20.994;2023-11-19T05:50:16;40.30;;;25.23;;
17482;SDS011;8858;52.308;20.994;2023-11-19T05:52:47;42.00;;;26.17;;
17482;SDS011;8858;52.308;20.994;2023-11-19T05:55:16;41.27;;;26.30;;
17482;SDS011;8858;52.308;20.994;2023-11-19T05:57:44;42.90;;;26.77;;
17482;SDS011;8858;52.308;20.994;2023-11-19T06:00:14;39.03;;;25.37;;
17482;SDS011;8858;52.308;20.994;2023-11-19T06:02:45;39.13;;;24.33;;
17482;SDS011;8858;52.308;20.994;2023-11-19T06:05:16;39.80;;;24.73;;
17482;SDS011;8858;52.308;20.994;2023-11-19T06:07:44;43.13;;;25.60;;
17482;SDS011;8858;52.308;20.994;2023-11-19T06:10:12;40.20;;;25.17;;
17482;SDS011;8858;52.308;20.994;2023-11-19T06:12:47;38.97;;;24.50;;
17482;SDS011;8858;52.308;20.994;2023-11-19T06:15:26;37.70;;;23.97;;
17482;SDS011;8858;52.308;20.994;2023-11-19T06:17:55;39.20;;;24.60;;
17482;SDS011;8858;52.308;20.994;2023-11-19T06:20:26;38.07;;;24.03;;
17482;SDS011;8858;52.308;20.994;2023-11-19T06:23:09;35.40;;;23.07;;
17482;SDS011;8858;52.308;20.994;2023-11-19T06:25:37;34.07;;;23.07;;
17482;SDS011;8858;52.308;20.994;2023-11-19T06:28:05;38.50;;;22.93;;
17482;SDS011;8858;52.308;20.994;2023-11-19T06:31:00;32.17;;;20.77;;
17482;SDS011;8858;52.308;20.994;2023-11-19T06:33:28;32.57;;;21.60;;
17482;SDS011;8858;52.308;20.994;2023-11-19T06:35:59;30.27;;;20.30;;
17482;SDS011;8858;52.308;20.994;2023-11-19T06:38:28;27.13;;;18.20;;
17482;SDS011;8858;52.308;20.994;2023-11-19T06:40:57;28.90;;;19.00;;
17482;SDS011;8858;52.308;20.994;2023-11-19T06:43:26;25.80;;;18.77;;
17482;SDS011;8858;52.308;20.994;2023-11-19T06:46:15;22.10;;;15.90;;
17482;SDS011;8858;52.308;20.994;2023-11-19T06:48:44;21.00;;;15.27;;
17482;SDS011;8858;52.308;20.994;2023-11-19T06:51:13;20.70;;;15.00;;
17482;SDS011;8858;52.308;20.994;2023-11-19T06:53:42;19.17;;;13.93;;
17482;SDS011;8858;52.308;20.994;2023-11-19T06:56:19;18.57;;;14.13;;
17482;SDS011;8858;52.308;20.994;2023-11-19T06:58:48;15.93;;;12.50;;
17482;SDS011;8858;52.308;20.994;2023-11-19T07:01:18;16.80;;;11.87;;
17482;SDS011;8858;52.308;20.994;2023-11-19T07:03:47;12.80;;;10.27;;
17482;SDS011;8858;52.308;20.994;2023-11-19T07:06:16;12.83;;;10.30;;
17482;SDS011;8858;52.308;20.994;2023-11-19T07:08:46;13.80;;;10.33;;
17482;SDS011;8858;52.308;20.994;2023-11-19T07:11:16;16.17;;;11.17;;
17482;SDS011;8858;52.308;20.994;2023-11-19T07:13:45;16.07;;;12.43;;
17482;SDS011;8858;52.308;20.994;2023-11-19T07:16:13;16.90;;;12.20;;
17482;SDS011;8858;52.308;20.994;2023-11-19T07:18:43;16.47;;;11.70;;
17482;SDS011;8858;52.308;20.994;2023-11-19T07:21:17;14.47;;;10.93;;
17482;SDS011;8858;52.308;20.994;2023-11-19T07:23:47;13.77;;;10.67;;
17482;SDS011;8858;52.308;20.994;2023-11-19T07:26:18;14.67;;;10.17;;
17482;SDS011;8858;52.308;20.994;2023-11-19T07:28:46;13.50;;;10.60;;
17482;SDS011;8858;52.308;20.994;2023-11-19T07:31:16;14.40;;;10.97;;
17482;SDS011;8858;52.308;20.994;2023-11-19T07:33:48;15.07;;;11.30;;
17482;SDS011;8858;52.308;20.994;2023-11-19T07:36:18;14.67;;;11.73;;
17482;SDS011;8858;52.308;20.994;2023-11-19T07:38:47;13.07;;;10.60;;
17482;SDS011;8858;52.308;20.994;2023-11-19T07:41:19;13.07;;;10.47;;
17482;SDS011;8858;52.308;20.994;2023-11-19T07:43:48;13.43;;;11.10;;
17482;SDS011;8858;52.308;20.994;2023-11-19T07:46:17;16.13;;;11.70;;
17482;SDS011;8858;52.308;20.994;2023-11-19T07:48:47;12.00;;;10.10;;
17482;SDS011;8858;52.308;20.994;2023-11-19T07:51:16;13.77;;;11.17;;
17482;SDS011;8858;52.308;20.994;2023-11-19T07:53:47;14.03;;;11.17;;
17482;SDS011;8858;52.308;20.994;2023-11-19T07:56:16;16.33;;;13.20;;
17482;SDS011;8858;52.308;20.994;2023-11-19T07:58:44;13.00;;;11.30;;
17482;SDS011;8858;52.308;20.994;2023-11-19T08:01:15;10.90;;;9.80;;
17482;SDS011;8858;52.308;20.994;2023-11-19T08:03:43;14.27;;;10.70;;
17482;SDS011;8858;52.308;20.994;2023-11-19T08:06:16;11.90;;;10.07;;
17482;SDS011;8858;52.308;20.994;2023-11-19T08:08:44;12.80;;;11.23;;
17482;SDS011;8858;52.308;20.994;2023-11-19T08:11:15;11.20;;;10.00;;
17482;SDS011;8858;52.308;20.994;2023-11-19T08:13:44;12.97;;;10.77;;
17482;SDS011;8858;52.308;20.994;2023-11-19T08:16:12;14.93;;;11.47;;
17482;SDS011;8858;52.308;20.994;2023-11-19T08:18:43;14.57;;;11.13;;
17482;SDS011;8858;52.308;20.994;2023-11-19T08:21:11;13.27;;;11.17;;
17482;SDS011;8858;52.308;20.994;2023-11-19T08:23:41;13.27;;;11.37;;
17482;SDS011;8858;52.308;20.994;2023-11-19T08:26:10;14.07;;;11.90;;
17482;SDS011;8858;52.308;20.994;2023-11-19T08:28:39;17.17;;;12.77;;
17482;SDS011;8858;52.308;20.994;2023-11-19T08:31:11;12.80;;;11.00;;
17482;SDS011;8858;52.308;20.994;2023-11-19T08:33:39;12.70;;;11.40;;
17482;SDS011;8858;52.308;20.994;2023-11-19T08:36:08;12.53;;;11.17;;
17482;SDS011;8858;52.308;20.994;2023-11-19T08:38:43;14.73;;;12.20;;
17482;SDS011;8858;52.308;20.994;2023-11-19T08:41:14;13.63;;;11.27;;
17482;SDS011;8858;52.308;20.994;2023-11-19T08:43:44;14.60;;;12.30;;
17482;SDS011;8858;52.308;20.994;2023-11-19T08:46:12;13.63;;;11.10;;
17482;SDS011;8858;52.308;20.994;2023-11-19T08:48:42;13.80;;;11.57;;
17482;SDS011;8858;52.308;20.994;2023-11-19T08:51:10;14.20;;;12.00;;
17482;SDS011;8858;52.308;20.994;2023-11-19T08:53:38;13.07;;;11.17;;
17482;SDS011;8858;52.308;20.994;2023-11-19T08:56:09;14.10;;;11.53;;
17482;SDS011;8858;52.308;20.994;2023-11-19T08:58:38;15.03;;;12.10;;
17482;SDS011;8858;52.308;20.994;2023-11-19T09:01:06;13.17;;;11.77;;
17482;SDS011;8858;52.308;20.994;2023-11-19T09:03:36;14.23;;;12.30;;
17482;SDS011;8858;52.308;20.994;2023-11-19T09:06:05;13.73;;;12.07;;
17482;SDS011;8858;52.308;20.994;2023-11-19T09:08:35;14.07;;;12.00;;
17482;SDS011;8858;52.308;20.994;2023-11-19T09:11:06;15.50;;;12.83;;
17482;SDS011;8858;52.308;20.994;2023-11-19T09:13:37;15.93;;;12.90;;
17482;SDS011;8858;52.308;20.994;2023-11-19T09:16:06;16.90;;;12.40;;
17482;SDS011;8858;52.308;20.994;2023-11-19T09:18:39;14.77;;;12.63;;
17482;SDS011;8858;52.308;20.994;2023-11-19T09:21:08;14.07;;;11.80;;
17482;SDS011;8858;52.308;20.994;2023-11-19T09:23:39;14.10;;;11.37;;
17482;SDS011;8858;52.308;20.994;2023-11-19T09:26:31;15.43;;;13.13;;
17482;SDS011;8858;52.308;20.994;2023-11-19T09:29:01;14.13;;;11.87;;
17482;SDS011;8858;52.308;20.994;2023-11-19T09:31:29;13.53;;;11.80;;
17482;SDS011;8858;52.308;20.994;2023-11-19T09:34:01;14.30;;;11.87;;
17482;SDS011;8858;52.308;20.994;2023-11-19T09:36:29;16.07;;;12.67;;
17482;SDS011;8858;52.308;20.994;2023-11-19T09:38:58;14.00;;;12.03;;
17482;SDS011;8858;52.308;20.994;2023-11-19T09:41:26;14.00;;;12.23;;
17482;SDS011;8858;52.308;20.994;2023-11-19T09:43:56;15.47;;;12.70;;
17482;SDS011;8858;52.308;20.994;2023-11-19T09:46:26;15.00;;;12.70;;
17482;SDS011;8858;52.308;20.994;2023-11-19T09:48:56;15.60;;;12.90;;
17482;SDS011;8858;52.308;20.994;2023-11-19T09:51:26;14.03;;;11.90;;
17482;SDS011;8858;52.308;20.994;2023-11-19T09:53:55;15.20;;;12.50;;
17482;SDS011;8858;52.308;20.994;2023-11-19T09:56:24;14.33;;;11.23;;
17482;SDS011;8858;52.308;20.994;2023-11-19T09:58:54;13.77;;;11.03;;
17482;SDS011;8858;52.308;20.994;2023-11-19T10:01:23;13.50;;;11.73;;
17482;SDS011;8858;52.308;20.994;2023-11-19T10:03:56;15.27;;;12.73;;
17482;SDS011;8858;52.308;20.994;2023-11-19T10:06:24;14.50;;;12.03;;
17482;SDS011;8858;52.308;20.994;2023-11-19T10:08:54;13.40;;;11.83;;
17482;SDS011;8858;52.308;20.994;2023-11-19T10:11:23;15.60;;;12.27;;
17482;SDS011;8858;52.308;20.994;2023-11-19T10:13:53;15.23;;;12.43;;
17482;SDS011;8858;52.308;20.994;2023-11-19T10:16:27;14.97;;;12.93;;
17482;SDS011;8858;52.308;20.994;2023-11-19T10:18:59;16.23;;;13.23;;
17482;SDS011;8858;52.308;20.994;2023-11-19T10:21:28;15.63;;;13.50;;
17482;SDS011;8858;52.308;20.994;2023-11-19T10:24:00;15.43;;;12.67;;
17482;SDS011;8858;52.308;20.994;2023-11-19T10:26:30;16.23;;;13.30;;
17482;SDS011;8858;52.308;20.994;2023-11-19T10:29:03;15.47;;;13.20;;
17482;SDS011;8858;52.308;20.994;2023-11-19T10:31:33;17.90;;;14.07;;
17482;SDS011;8858;52.308;20.994;2023-11-19T10:34:01;19.50;;;14.30;;
17482;SDS011;8858;52.308;20.994;2023-11-19T10:36:37;18.67;;;14.13;;
17482;SDS011;8858;52.308;20.994;2023-11-19T10:39:08;15.83;;;13.57;;
17482;SDS011;8858;52.308;20.994;2023-11-19T10:41:37;18.00;;;14.10;;
17482;SDS011;8858;52.308;20.994;2023-11-19T10:44:06;15.73;;;13.30;;
17482;SDS011;8858;52.308;20.994;2023-11-19T10:46:41;17.10;;;13.50;;
17482;SDS011;8858;52.308;20.994;2023-11-19T10:49:11;20.60;;;14.37;;
17482;SDS011;8858;52.308;20.994;2023-11-19T10:51:41;21.53;;;14.10;;
17482;SDS011;8858;52.308;20.994;2023-11-19T10:54:13;15.93;;;14.00;;
17482;SDS011;8858;52.308;20.994;2023-11-19T10:56:47;17.93;;;14.77;;
17482;SDS011;8858;52.308;20.994;2023-11-19T10:59:23;16.03;;;13.47;;
17482;SDS011;8858;52.308;20.994;2023-11-19T11:02:00;17.23;;;13.87;;
17482;SDS011;8858;52.308;20.994;2023-11-19T11:04:36;17.07;;;14.20;;
17482;SDS011;8858;52.308;20.994;2023-11-19T11:07:12;19.30;;;14.70;;
17482;SDS011;8858;52.308;20.994;2023-11-19T11:09:43;18.67;;;14.17;;
17482;SDS011;8858;52.308;20.994;2023-11-19T11:12:15;18.00;;;14.47;;
17482;SDS011;8858;52.308;20.994;2023-11-19T11:14:50;18.47;;;14.83;;
17482;SDS011;8858;52.308;20.994;2023-11-19T11:17:21;19.40;;;14.17;;
17482;SDS011;8858;52.308;20.994;2023-11-19T11:19:55;17.23;;;13.00;;
17482;SDS011;8858;52.308;20.994;2023-11-19T11:22:23;17.47;;;13.93;;
17482;SDS011;8858;52.308;20.994;2023-11-19T11:25:04;18.23;;;13.87;;
17482;SDS011;8858;52.308;20.994;2023-11-19T11:27:48;17.07;;;13.87;;
17482;SDS011;8858;52.308;20.994;2023-11-19T11:30:29;16.73;;;13.77;;
17482;SDS011;8858;52.308;20.994;2023-11-19T11:33:10;18.60;;;14.87;;
17482;SDS011;8858;52.308;20.994;2023-11-19T11:35:55;16.27;;;13.87;;
17482;SDS011;8858;52.308;20.994;2023-11-19T11:38:34;20.30;;;14.80;;
17482;SDS011;8858;52.308;20.994;2023-11-19T11:41:17;19.20;;;14.43;;
17482;SDS011;8858;52.308;20.994;2023-11-19T11:43:51;19.67;;;15.53;;
17482;SDS011;8858;52.308;20.994;2023-11-19T11:49:26;17.60;;;14.00;;
17482;SDS011;8858;52.308;20.994;2023-11-19T11:52:00;20.03;;;15.17;;
17482;SDS011;8858;52.308;20.994;2023-11-19T11:54:30;17.40;;;13.97;;
17482;SDS011;8858;52.308;20.994;2023-11-19T11:57:07;19.23;;;14.50;;
17482;SDS011;8858;52.308;20.994;2023-11-19T11:59:47;18.83;;;14.27;;
17482;SDS011;8858;52.308;20.994;2023-11-19T12:02:17;15.97;;;13.50;;
17482;SDS011;8858;52.308;20.994;2023-11-19T12:04:49;16.73;;;14.37;;
17482;SDS011;8858;52.308;20.994;2023-11-19T12:07:21;17.23;;;14.23;;
17482;SDS011;8858;52.308;20.994;2023-11-19T12:09:51;17.90;;;14.20;;
17482;SDS011;8858;52.308;20.994;2023-11-19T12:12:22;20.97;;;14.37;;
17482;SDS011;8858;52.308;20.994;2023-11-19T12:15:04;20.00;;;14.17;;
17482;SDS011;8858;52.308;20.994;2023-11-19T12:17:37;20.17;;;14.70;;
17482;SDS011;8858;52.308;20.994;2023-11-19T12:20:14;17.37;;;14.93;;
17482;SDS011;8858;52.308;20.994;2023-11-19T12:23:00;19.33;;;14.27;;
17482;SDS011;8858;52.308;20.994;2023-11-19T12:25:34;19.20;;;15.00;;
17482;SDS011;8858;52.308;20.994;2023-11-19T12:28:03;18.27;;;15.30;;
17482;SDS011;8858;52.308;20.994;2023-11-19T12:30:33;20.07;;;15.20;;
17482;SDS011;8858;52.308;20.994;2023-11-19T12:33:07;20.27;;;15.73;;
17482;SDS011;8858;52.308;20.994;2023-11-19T12:35:39;19.17;;;15.10;;
17482;SDS011;8858;52.308;20.994;2023-11-19T12:38:17;21.63;;;15.13;;
17482;SDS011;8858;52.308;20.994;2023-11-19T12:40:46;18.43;;;14.47;;
17482;SDS011;8858;52.308;20.994;2023-11-19T12:43:21;19.00;;;14.90;;
17482;SDS011;8858;52.308;20.994;2023-11-19T12:45:49;19.13;;;15.30;;
17482;SDS011;8858;52.308;20.994;2023-11-19T12:48:18;17.47;;;14.10;;
17482;SDS011;8858;52.308;20.994;2023-11-19T12:50:54;19.87;;;14.87;;
17482;SDS011;8858;52.308;20.994;2023-11-19T12:53:25;21.37;;;16.03;;
17482;SDS011;8858;52.308;20.994;2023-11-19T12:55:54;18.90;;;15.13;;
17482;SDS011;8858;52.308;20.994;2023-11-19T12:58:29;20.63;;;14.50;;
17482;SDS011;8858;52.308;20.994;2023-11-19T13:01:00;17.27;;;14.23;;
17482;SDS011;8858;52.308;20.994;2023-11-19T13:03:30;19.87;;;15.50;;
17482;SDS011;8858;52.308;20.994;2023-11-19T13:06:05;18.97;;;14.90;;
17482;SDS011;8858;52.308;20.994;2023-11-19T13:08:38;18.30;;;14.27;;
17482;SDS011;8858;52.308;20.994;2023-11-19T13:11:08;19.17;;;15.40;;
17482;SDS011;8858;52.308;20.994;2023-11-19T13:13:55;19.73;;;14.87;;
17482;SDS011;8858;52.308;20.994;2023-11-19T13:16:28;18.30;;;14.20;;
17482;SDS011;8858;52.308;20.994;2023-11-19T13:18:56;16.90;;;14.33;;
17482;SDS011;8858;52.308;20.994;2023-11-19T13:21:27;17.23;;;13.77;;
17482;SDS011;8858;52.308;20.994;2023-11-19T13:23:57;18.80;;;14.50;;
17482;SDS011;8858;52.308;20.994;2023-11-19T13:26:25;19.67;;;15.37;;
17482;SDS011;8858;52.308;20.994;2023-11-19T13:28:58;17.73;;;14.50;;
17482;SDS011;8858;52.308;20.994;2023-11-19T13:31:26;16.87;;;14.47;;
17482;SDS011;8858;52.308;20.994;2023-11-19T13:33:55;18.60;;;14.80;;
17482;SDS011;8858;52.308;20.994;2023-11-19T13:36:26;17.50;;;14.27;;
17482;SDS011;8858;52.308;20.994;2023-11-19T13:38:54;17.90;;;14.40;;
17482;SDS011;8858;52.308;20.994;2023-11-19T13:41:26;18.80;;;14.53;;
17482;SDS011;8858;52.308;20.994;2023-11-19T13:43:54;19.47;;;15.30;;
17482;SDS011;8858;52.308;20.994;2023-11-19T13:46:23;19.40;;;14.67;;
17482;SDS011;8858;52.308;20.994;2023-11-19T13:48:51;20.33;;;15.97;;
17482;SDS011;8858;52.308;20.994;2023-11-19T13:51:20;19.93;;;15.27;;
17482;SDS011;8858;52.308;20.994;2023-11-19T13:53:53;18.87;;;14.40;;
17482;SDS011;8858;52.308;20.994;2023-11-19T13:56:22;21.93;;;16.87;;
17482;SDS011;8858;52.308;20.994;2023-11-19T13:58:50;18.97;;;15.10;;
17482;SDS011;8858;52.308;20.994;2023-11-19T14:01:19;20.53;;;15.87;;
17482;SDS011;8858;52.308;20.994;2023-11-19T14:03:55;20.60;;;16.20;;
17482;SDS011;8858;52.308;20.994;2023-11-19T14:06:24;20.73;;;16.37;;
17482;SDS011;8858;52.308;20.994;2023-11-19T14:08:54;22.00;;;16.13;;
17482;SDS011;8858;52.308;20.994;2023-11-19T14:11:22;20.33;;;15.93;;
17482;SDS011;8858;52.308;20.994;2023-11-19T14:13:51;22.63;;;15.97;;
17482;SDS011;8858;52.308;20.994;2023-11-19T14:16:19;20.90;;;16.50;;
17482;SDS011;8858;52.308;20.994;2023-11-19T14:18:48;22.07;;;16.50;;
17482;SDS011;8858;52.308;20.994;2023-11-19T14:21:16;19.87;;;15.80;;
17482;SDS011;8858;52.308;20.994;2023-11-19T14:23:45;21.77;;;16.67;;
17482;SDS011;8858;52.308;20.994;2023-11-19T14:26:14;20.20;;;17.23;;
17482;SDS011;8858;52.308;20.994;2023-11-19T14:28:43;24.07;;;17.73;;
17482;SDS011;8858;52.308;20.994;2023-11-19T14:31:14;24.30;;;18.10;;
17482;SDS011;8858;52.308;20.994;2023-11-19T14:33:46;24.27;;;18.00;;
17482;SDS011;8858;52.308;20.994;2023-11-19T14:36:16;24.43;;;17.93;;
17482;SDS011;8858;52.308;20.994;2023-11-19T14:38:44;22.60;;;18.17;;
17482;SDS011;8858;52.308;20.994;2023-11-19T14:41:12;23.83;;;17.53;;
17482;SDS011;8858;52.308;20.994;2023-11-19T14:43:43;26.83;;;18.67;;
17482;SDS011;8858;52.308;20.994;2023-11-19T14:46:11;23.30;;;17.80;;
17482;SDS011;8858;52.308;20.994;2023-11-19T14:48:40;24.93;;;18.57;;